sensor_id;sensor_type;location;lat;lon;timestamp;pressure;altitude;pressure_sealevel;temperature;humidity
4590;BME280;2307;48.448;9.216;2023-02-17T00:00:50;96254.59;;;10.55;66.45
4590;BME280;2307;48.448;9.216;2023-02-17T00:03:17;96248.88;;;10.58;66.89
4590;BME280;2307;48.448;9.216;2023-02-17T00:05:44;96249.25;;;10.62;65.25
4590;BME280;2307;48.448;9.216;2023-02-17T00:08:10;96248.22;;;10.63;65.46
4590;BME280;2307;48.448;9.216;2023-02-17T00:10:37;96242.94;;;10.63;65.43
4590;BME280;2307;48.448;9.216;2023-02-17T00:13:03;96250.22;;;10.68;65.06
4590;BME280;2307;48.448;9.216;2023-02-17T00:15:29;96240.91;;;10.65;64.82
4590;BME280;2307;48.448;9.216;2023-02-17T00:17:56;96249.63;;;10.65;64.77
4590;BME280;2307;48.448;9.216;2023-02-17T00:20:24;96244.75;;;10.62;65.77
4590;BME280;2307;48.448;9.216;2023-02-17T00:22:50;96245.97;;;10.66;65.08
4590;BME280;2307;48.448;9.216;2023-02-17T00:25:16;96239.44;;;10.69;64.89
4590;BME280;2307;48.448;9.216;2023-02-17T00:27:43;96250.38;;;10.73;64.54
4590;BME280;2307;48.448;9.216;2023-02-17T00:30:09;96248.59;;;10.66;65.44
4590;BME280;2307;48.448;9.216;2023-02-17T00:32:36;96242.06;;;10.69;65.08
4590;BME280;2307;48.448;9.216;2023-02-17T00:35:02;96238.84;;;10.67;65.27
4590;BME280;2307;48.448;9.216;2023-02-17T00:37:30;96237.03;;;10.68;65.61
4590;BME280;2307;48.448;9.216;2023-02-17T00:39:56;96232.94;;;10.72;64.41
4590;BME280;2307;48.448;9.216;2023-02-17T00:42:22;96232.06;;;10.78;63.87
4590;BME280;2307;48.448;9.216;2023-02-17T00:44:49;96246.25;;;10.83;64.20
4590;BME280;2307;48.448;9.216;2023-02-17T00:47:15;96215.94;;;10.86;64.86
4590;BME280;2307;48.448;9.216;2023-02-17T00:49:41;96227.19;;;10.81;63.87
4590;BME280;2307;48.448;9.216;2023-02-17T00:52:08;96215.34;;;10.84;63.85
4590;BME280;2307;48.448;9.216;2023-02-17T00:54:35;96212.47;;;10.85;64.26
4590;BME280;2307;48.448;9.216;2023-02-17T00:57:03;96222.09;;;10.80;63.72
4590;BME280;2307;48.448;9.216;2023-02-17T00:59:29;96231.03;;;10.79;63.88
4590;BME280;2307;48.448;9.216;2023-02-17T01:01:55;96251.16;;;10.80;63.31
4590;BME280;2307;48.448;9.216;2023-02-17T01:04:22;96237.38;;;10.78;63.24
4590;BME280;2307;48.448;9.216;2023-02-17T01:06:48;96215.78;;;10.81;62.52
4590;BME280;2307;48.448;9.216;2023-02-17T01:09:14;96228.63;;;10.77;62.62
4590;BME280;2307;48.448;9.216;2023-02-17T01:11:42;96233.72;;;10.72;63.16
4590;BME280;2307;48.448;9.216;2023-02-17T01:14:09;96233.38;;;10.69;63.61
4590;BME280;2307;48.448;9.216;2023-02-17T01:16:38;96232.50;;;10.75;63.58
4590;BME280;2307;48.448;9.216;2023-02-17T01:19:05;96228.44;;;10.72;63.30
4590;BME280;2307;48.448;9.216;2023-02-17T01:21:32;96227.84;;;10.70;63.84
4590;BME280;2307;48.448;9.216;2023-02-17T01:24:00;96214.25;;;10.66;64.36
4590;BME280;2307;48.448;9.216;2023-02-17T01:26:26;96226.88;;;10.64;64.61
4590;BME280;2307;48.448;9.216;2023-02-17T01:28:55;96226.28;;;10.62;64.74
4590;BME280;2307;48.448;9.216;2023-02-17T01:31:22;96228.91;;;10.62;64.98
4590;BME280;2307;48.448;9.216;2023-02-17T01:33:51;96213.41;;;10.73;64.05
4590;BME280;2307;48.448;9.216;2023-02-17T01:36:17;96214.25;;;10.66;65.42
4590;BME280;2307;48.448;9.216;2023-02-17T01:38:44;96214.91;;;10.62;65.86
4590;BME280;2307;48.448;9.216;2023-02-17T01:41:11;96226.47;;;10.68;65.88
4590;BME280;2307;48.448;9.216;2023-02-17T01:43:38;96197.97;;;10.70;65.52
4590;BME280;2307;48.448;9.216;2023-02-17T01:46:06;96187.41;;;10.70;66.47
4590;BME280;2307;48.448;9.216;2023-02-17T01:48:35;96192.09;;;10.68;66.25
4590;BME280;2307;48.448;9.216;2023-02-17T01:51:03;96186.16;;;10.72;66.43
4590;BME280;2307;48.448;9.216;2023-02-17T01:53:32;96196.31;;;10.75;65.39
4590;BME280;2307;48.448;9.216;2023-02-17T01:55:59;96185.97;;;10.74;66.00
4590;BME280;2307;48.448;9.216;2023-02-17T01:58:26;96191.69;;;10.71;66.11
4590;BME280;2307;48.448;9.216;2023-02-17T02:00:54;96179.72;;;10.68;66.33
4590;BME280;2307;48.448;9.216;2023-02-17T02:03:24;96185.63;;;10.63;67.09
4590;BME280;2307;48.448;9.216;2023-02-17T02:05:52;96176.84;;;10.70;66.67
4590;BME280;2307;48.448;9.216;2023-02-17T02:08:18;96179.19;;;10.84;66.42
4590;BME280;2307;48.448;9.216;2023-02-17T02:10:44;96176.41;;;10.73;67.26
4590;BME280;2307;48.448;9.216;2023-02-17T02:13:11;96156.09;;;10.73;67.61
4590;BME280;2307;48.448;9.216;2023-02-17T02:15:39;96174.63;;;10.66;68.87
4590;BME280;2307;48.448;9.216;2023-02-17T02:18:12;96157.09;;;10.72;70.20
4590;BME280;2307;48.448;9.216;2023-02-17T02:20:48;96167.91;;;10.71;70.38
4590;BME280;2307;48.448;9.216;2023-02-17T02:23:40;96172.16;;;10.72;71.20
4590;BME280;2307;48.448;9.216;2023-02-17T02:26:17;96169.16;;;10.68;72.35
4590;BME280;2307;48.448;9.216;2023-02-17T02:28:54;96179.53;;;10.63;74.82
4590;BME280;2307;48.448;9.216;2023-02-17T02:31:28;96174.25;;;10.63;75.82
4590;BME280;2307;48.448;9.216;2023-02-17T02:34:03;96181.97;;;10.64;77.26
4590;BME280;2307;48.448;9.216;2023-02-17T02:36:33;96155.31;;;10.66;78.08
4590;BME280;2307;48.448;9.216;2023-02-17T02:39:02;96162.44;;;10.65;78.78
4590;BME280;2307;48.448;9.216;2023-02-17T02:41:30;96161.84;;;10.63;78.81
4590;BME280;2307;48.448;9.216;2023-02-17T02:43:58;96155.72;;;10.70;78.92
4590;BME280;2307;48.448;9.216;2023-02-17T02:46:24;96152.47;;;10.68;78.46
4590;BME280;2307;48.448;9.216;2023-02-17T02:48:51;96150.84;;;10.66;79.34
4590;BME280;2307;48.448;9.216;2023-02-17T02:51:25;96147.25;;;10.61;80.00
4590;BME280;2307;48.448;9.216;2023-02-17T02:56:45;96155.38;;;10.59;80.52
4590;BME280;2307;48.448;9.216;2023-02-17T02:59:17;96154.50;;;10.65;79.91
4590;BME280;2307;48.448;9.216;2023-02-17T03:01:49;96123.63;;;10.66;79.68
4590;BME280;2307;48.448;9.216;2023-02-17T03:04:21;96139.72;;;10.64;80.94
4590;BME280;2307;48.448;9.216;2023-02-17T03:06:57;96144.81;;;10.59;81.78
4590;BME280;2307;48.448;9.216;2023-02-17T03:09:26;96144.03;;;10.59;81.95
4590;BME280;2307;48.448;9.216;2023-02-17T03:11:54;96138.38;;;10.55;82.65
4590;BME280;2307;48.448;9.216;2023-02-17T03:14:21;96155.63;;;10.58;83.66
4590;BME280;2307;48.448;9.216;2023-02-17T03:16:48;96141.78;;;10.56;83.06
4590;BME280;2307;48.448;9.216;2023-02-17T03:19:16;96145.25;;;10.56;83.22
4590;BME280;2307;48.448;9.216;2023-02-17T03:21:45;96138.38;;;10.55;84.04
4590;BME280;2307;48.448;9.216;2023-02-17T03:24:15;96132.31;;;10.48;84.65
4590;BME280;2307;48.448;9.216;2023-02-17T03:26:41;96141.69;;;10.44;85.61
4590;BME280;2307;48.448;9.216;2023-02-17T03:29:07;96139.06;;;10.44;86.00
4590;BME280;2307;48.448;9.216;2023-02-17T03:31:34;96143.53;;;10.44;86.68
4590;BME280;2307;48.448;9.216;2023-02-17T03:34:00;96132.00;;;10.38;87.36
4590;BME280;2307;48.448;9.216;2023-02-17T03:36:27;96130.16;;;10.39;87.50
4590;BME280;2307;48.448;9.216;2023-02-17T03:38:54;96139.16;;;10.31;88.67
4590;BME280;2307;48.448;9.216;2023-02-17T03:41:22;96123.91;;;10.33;88.93
4590;BME280;2307;48.448;9.216;2023-02-17T03:43:48;96113.78;;;10.30;89.81
4590;BME280;2307;48.448;9.216;2023-02-17T03:46:15;96115.81;;;10.28;90.80
4590;BME280;2307;48.448;9.216;2023-02-17T03:48:41;96111.41;;;10.22;91.61
4590;BME280;2307;48.448;9.216;2023-02-17T03:51:08;96098.38;;;10.27;91.08
4590;BME280;2307;48.448;9.216;2023-02-17T03:53:35;96107.91;;;10.28;90.91
4590;BME280;2307;48.448;9.216;2023-02-17T03:56:01;96100.78;;;10.29;90.20
4590;BME280;2307;48.448;9.216;2023-02-17T03:58:29;96106.44;;;10.32;89.70
4590;BME280;2307;48.448;9.216;2023-02-17T04:00:55;96109.38;;;10.24;90.88
4590;BME280;2307;48.448;9.216;2023-02-17T04:03:21;96124.78;;;10.27;90.93
4590;BME280;2307;48.448;9.216;2023-02-17T04:05:48;96120.94;;;10.23;91.04
4590;BME280;2307;48.448;9.216;2023-02-17T04:08:14;96123.75;;;10.28;90.73
4590;BME280;2307;48.448;9.216;2023-02-17T04:10:40;96120.09;;;10.29;92.43
4590;BME280;2307;48.448;9.216;2023-02-17T04:13:09;96117.44;;;10.29;93.67
4590;BME280;2307;48.448;9.216;2023-02-17T04:15:37;96121.09;;;10.28;94.24
4590;BME280;2307;48.448;9.216;2023-02-17T04:18:03;96124.16;;;10.25;95.35
4590;BME280;2307;48.448;9.216;2023-02-17T04:20:29;96132.75;;;10.21;97.35
4590;BME280;2307;48.448;9.216;2023-02-17T04:22:56;96137.22;;;10.20;97.56
4590;BME280;2307;48.448;9.216;2023-02-17T04:25:22;96151.22;;;10.21;99.77
4590;BME280;2307;48.448;9.216;2023-02-17T04:27:48;96149.22;;;10.16;100.00
4590;BME280;2307;48.448;9.216;2023-02-17T04:30:15;96141.09;;;10.18;100.00
4590;BME280;2307;48.448;9.216;2023-02-17T04:32:43;96144.94;;;10.15;100.00
4590;BME280;2307;48.448;9.216;2023-02-17T04:35:09;96134.63;;;10.13;100.00
4590;BME280;2307;48.448;9.216;2023-02-17T04:37:35;96145.78;;;10.09;100.00
4590;BME280;2307;48.448;9.216;2023-02-17T04:40:02;96141.53;;;10.08;100.00
4590;BME280;2307;48.448;9.216;2023-02-17T04:42:34;96151.72;;;10.04;100.00
4590;BME280;2307;48.448;9.216;2023-02-17T04:45:00;96148.25;;;10.04;100.00
4590;BME280;2307;48.448;9.216;2023-02-17T04:47:27;96144.81;;;10.03;100.00
4590;BME280;2307;48.448;9.216;2023-02-17T04:49:54;96147.28;;;9.98;100.00
4590;BME280;2307;48.448;9.216;2023-02-17T04:52:21;96131.84;;;10.02;100.00
4590;BME280;2307;48.448;9.216;2023-02-17T04:54:47;96137.50;;;9.99;100.00
4590;BME280;2307;48.448;9.216;2023-02-17T04:57:13;96131.88;;;9.95;100.00
4590;BME280;2307;48.448;9.216;2023-02-17T04:59:40;96120.31;;;9.90;100.00
4590;BME280;2307;48.448;9.216;2023-02-17T05:02:06;96130.88;;;9.90;100.00
4590;BME280;2307;48.448;9.216;2023-02-17T05:04:32;96135.09;;;9.97;100.00
4590;BME280;2307;48.448;9.216;2023-02-17T05:07:00;96144.03;;;9.96;100.00
4590;BME280;2307;48.448;9.216;2023-02-17T05:09:27;96139.63;;;9.84;100.00
4590;BME280;2307;48.448;9.216;2023-02-17T05:11:53;96133.94;;;9.87;100.00
4590;BME280;2307;48.448;9.216;2023-02-17T05:14:19;96130.72;;;9.85;100.00
4590;BME280;2307;48.448;9.216;2023-02-17T05:16:46;96130.72;;;9.85;100.00
4590;BME280;2307;48.448;9.216;2023-02-17T05:19:12;96129.69;;;9.86;100.00
4590;BME280;2307;48.448;9.216;2023-02-17T05:21:38;96125.03;;;9.81;100.00
4590;BME280;2307;48.448;9.216;2023-02-17T05:24:06;96126.44;;;9.84;100.00
4590;BME280;2307;48.448;9.216;2023-02-17T05:26:33;96113.69;;;9.81;100.00
4590;BME280;2307;48.448;9.216;2023-02-17T05:28:59;96118.53;;;9.84;100.00
4590;BME280;2307;48.448;9.216;2023-02-17T05:31:26;96112.66;;;9.82;100.00
4590;BME280;2307;48.448;9.216;2023-02-17T05:33:52;96118.72;;;9.89;99.22
4590;BME280;2307;48.448;9.216;2023-02-17T05:36:18;96113.47;;;9.82;99.20
4590;BME280;2307;48.448;9.216;2023-02-17T05:38:45;96107.81;;;9.79;99.66
4590;BME280;2307;48.448;9.216;2023-02-17T05:41:15;96106.41;;;9.76;100.00
4590;BME280;2307;48.448;9.216;2023-02-17T05:43:41;96107.63;;;9.74;98.53
4590;BME280;2307;48.448;9.216;2023-02-17T05:46:08;96106.41;;;9.76;97.37
4590;BME280;2307;48.448;9.216;2023-02-17T05:48:34;96114.91;;;9.78;90.15
4590;BME280;2307;48.448;9.216;2023-02-17T05:51:01;96121.00;;;9.79;90.24
4590;BME280;2307;48.448;9.216;2023-02-17T05:53:27;96132.75;;;9.83;86.62
4590;BME280;2307;48.448;9.216;2023-02-17T05:55:54;96133.56;;;9.77;85.94
4590;BME280;2307;48.448;9.216;2023-02-17T05:58:21;96123.41;;;9.80;82.56
4590;BME280;2307;48.448;9.216;2023-02-17T06:00:48;96121.16;;;9.84;82.31
4590;BME280;2307;48.448;9.216;2023-02-17T06:03:14;96134.34;;;9.84;81.98
4590;BME280;2307;48.448;9.216;2023-02-17T06:05:41;96136.84;;;9.79;82.90
4590;BME280;2307;48.448;9.216;2023-02-17T06:08:07;96136.84;;;9.79;82.72
4590;BME280;2307;48.448;9.216;2023-02-17T06:10:34;96140.84;;;9.88;81.29
4590;BME280;2307;48.448;9.216;2023-02-17T06:13:00;96132.28;;;9.92;80.54
4590;BME280;2307;48.448;9.216;2023-02-17T06:15:28;96139.56;;;9.97;80.54
4590;BME280;2307;48.448;9.216;2023-02-17T06:17:54;96133.09;;;9.93;81.18
4590;BME280;2307;48.448;9.216;2023-02-17T06:20:21;96151.34;;;9.94;80.96
4590;BME280;2307;48.448;9.216;2023-02-17T06:22:47;96144.03;;;9.96;79.79
4590;BME280;2307;48.448;9.216;2023-02-17T06:25:14;96147.25;;;10.05;79.59
4590;BME280;2307;48.448;9.216;2023-02-17T06:27:40;96153.53;;;10.04;79.98
4590;BME280;2307;48.448;9.216;2023-02-17T06:30:08;96154.13;;;10.06;80.82
4590;BME280;2307;48.448;9.216;2023-02-17T06:32:36;96144.75;;;10.10;81.16
4590;BME280;2307;48.448;9.216;2023-02-17T06:35:02;96156.34;;;10.09;81.53
4590;BME280;2307;48.448;9.216;2023-02-17T06:37:29;96151.91;;;10.03;84.22
4590;BME280;2307;48.448;9.216;2023-02-17T06:39:55;96178.69;;;10.06;84.74
4590;BME280;2307;48.448;9.216;2023-02-17T06:42:21;96157.38;;;10.08;85.45
4590;BME280;2307;48.448;9.216;2023-02-17T06:44:48;96163.25;;;10.10;86.12
4590;BME280;2307;48.448;9.216;2023-02-17T06:47:14;96172.38;;;10.14;87.80
4590;BME280;2307;48.448;9.216;2023-02-17T06:49:42;96165.44;;;10.13;88.10
4590;BME280;2307;48.448;9.216;2023-02-17T06:52:08;96164.03;;;10.17;89.48
4590;BME280;2307;48.448;9.216;2023-02-17T06:54:35;96159.19;;;10.14;89.52
4590;BME280;2307;48.448;9.216;2023-02-17T06:57:01;96180.31;;;10.14;89.64
4590;BME280;2307;48.448;9.216;2023-02-17T06:59:27;96167.50;;;10.18;90.28
4590;BME280;2307;48.448;9.216;2023-02-17T07:01:54;96161.56;;;10.22;89.61
4590;BME280;2307;48.448;9.216;2023-02-17T07:04:20;96163.63;;;10.20;90.17
4590;BME280;2307;48.448;9.216;2023-02-17T07:06:48;96168.91;;;10.20;89.69
4590;BME280;2307;48.448;9.216;2023-02-17T07:09:14;96181.03;;;10.21;90.27
4590;BME280;2307;48.448;9.216;2023-02-17T07:11:40;96172.72;;;10.24;91.48
4590;BME280;2307;48.448;9.216;2023-02-17T07:14:09;96186.56;;;10.20;91.67
4590;BME280;2307;48.448;9.216;2023-02-17T07:16:35;96179.25;;;10.15;93.31
4590;BME280;2307;48.448;9.216;2023-02-17T07:19:03;96183.09;;;10.19;94.29
4590;BME280;2307;48.448;9.216;2023-02-17T07:21:29;96192.66;;;10.20;94.86
4590;BME280;2307;48.448;9.216;2023-02-17T07:23:57;96178.06;;;10.18;95.85
4590;BME280;2307;48.448;9.216;2023-02-17T07:26:23;96190.41;;;10.24;95.74
4590;BME280;2307;48.448;9.216;2023-02-17T07:28:50;96205.63;;;10.22;95.57
4590;BME280;2307;48.448;9.216;2023-02-17T07:31:16;96199.28;;;10.29;97.60
4590;BME280;2307;48.448;9.216;2023-02-17T07:33:43;96190.94;;;10.32;97.29
4590;BME280;2307;48.448;9.216;2023-02-17T07:36:12;96210.81;;;10.35;98.03
4590;BME280;2307;48.448;9.216;2023-02-17T07:38:39;96211.06;;;10.33;98.73
4590;BME280;2307;48.448;9.216;2023-02-17T07:41:08;96226.72;;;10.28;100.00
4590;BME280;2307;48.448;9.216;2023-02-17T07:43:34;96222.03;;;10.30;100.00
4590;BME280;2307;48.448;9.216;2023-02-17T07:46:01;96216.91;;;10.35;100.00
4590;BME280;2307;48.448;9.216;2023-02-17T07:48:27;96249.63;;;10.34;100.00
4590;BME280;2307;48.448;9.216;2023-02-17T07:50:53;96236.84;;;10.31;100.00
4590;BME280;2307;48.448;9.216;2023-02-17T07:53:20;96224.25;;;10.33;100.00
4590;BME280;2307;48.448;9.216;2023-02-17T07:55:46;96226.09;;;10.33;100.00
4590;BME280;2307;48.448;9.216;2023-02-17T07:58:14;96223.63;;;10.31;100.00
4590;BME280;2307;48.448;9.216;2023-02-17T08:00:40;96229.31;;;10.35;100.00
4590;BME280;2307;48.448;9.216;2023-02-17T08:03:07;96221.38;;;10.35;100.00
4590;BME280;2307;48.448;9.216;2023-02-17T08:05:36;96221.63;;;10.33;100.00
4590;BME280;2307;48.448;9.216;2023-02-17T08:08:03;96224.03;;;10.35;100.00
4590;BME280;2307;48.448;9.216;2023-02-17T08:10:46;96225.06;;;10.34;100.00
4590;BME280;2307;48.448;9.216;2023-02-17T08:13:32;96225.88;;;10.28;100.00
4590;BME280;2307;48.448;9.216;2023-02-17T08:15:58;96219.78;;;10.34;100.00
4590;BME280;2307;48.448;9.216;2023-02-17T08:18:25;96212.66;;;10.34;100.00
4590;BME280;2307;48.448;9.216;2023-02-17T08:20:51;96230.50;;;10.39;100.00
4590;BME280;2307;48.448;9.216;2023-02-17T08:23:18;96216.72;;;10.37;100.00
4590;BME280;2307;48.448;9.216;2023-02-17T08:25:45;96223.84;;;10.36;100.00
4590;BME280;2307;48.448;9.216;2023-02-17T08:28:11;96227.06;;;10.38;100.00
4590;BME280;2307;48.448;9.216;2023-02-17T08:30:39;96224.56;;;10.43;100.00
4590;BME280;2307;48.448;9.216;2023-02-17T08:33:05;96238.81;;;10.42;100.00
4590;BME280;2307;48.448;9.216;2023-02-17T08:35:32;96235.94;;;10.44;100.00
4590;BME280;2307;48.448;9.216;2023-02-17T08:37:58;96255.00;;;10.52;100.00
4590;BME280;2307;48.448;9.216;2023-02-17T08:40:25;96226.13;;;10.57;100.00
4590;BME280;2307;48.448;9.216;2023-02-17T08:42:51;96257.19;;;10.62;100.00
4590;BME280;2307;48.448;9.216;2023-02-17T08:45:17;96249.63;;;10.65;100.00
4590;BME280;2307;48.448;9.216;2023-02-17T08:47:45;96252.91;;;10.61;100.00
4590;BME280;2307;48.448;9.216;2023-02-17T08:50:15;96244.19;;;10.60;100.00
4590;BME280;2307;48.448;9.216;2023-02-17T08:52:41;96251.28;;;10.60;100.00
4590;BME280;2307;48.448;9.216;2023-02-17T08:55:08;96254.16;;;10.58;100.00
4590;BME280;2307;48.448;9.216;2023-02-17T08:57:34;96243.97;;;10.62;100.00
4590;BME280;2307;48.448;9.216;2023-02-17T09:00:01;96237.66;;;10.63;100.00
4590;BME280;2307;48.448;9.216;2023-02-17T09:02:29;96236.25;;;10.60;100.00
4590;BME280;2307;48.448;9.216;2023-02-17T09:04:57;96248.88;;;10.58;100.00
4590;BME280;2307;48.448;9.216;2023-02-17T09:07:24;96251.09;;;10.61;100.00
4590;BME280;2307;48.448;9.216;2023-02-17T09:09:50;96254.91;;;10.65;100.00
4590;BME280;2307;48.448;9.216;2023-02-17T09:12:16;96244.53;;;10.71;100.00
4590;BME280;2307;48.448;9.216;2023-02-17T09:14:43;96237.78;;;10.75;100.00
4590;BME280;2307;48.448;9.216;2023-02-17T09:17:09;96243.38;;;10.85;100.00
4590;BME280;2307;48.448;9.216;2023-02-17T09:19:36;96238.59;;;11.00;100.00
4590;BME280;2307;48.448;9.216;2023-02-17T09:22:04;96235.66;;;11.08;100.00
4590;BME280;2307;48.448;9.216;2023-02-17T09:24:31;96237.50;;;11.07;100.00
4590;BME280;2307;48.448;9.216;2023-02-17T09:27:00;96236.94;;;11.24;100.00
4590;BME280;2307;48.448;9.216;2023-02-17T09:29:27;96255.56;;;11.35;100.00
4590;BME280;2307;48.448;9.216;2023-02-17T09:31:53;96238.13;;;11.28;100.00
4590;BME280;2307;48.448;9.216;2023-02-17T09:34:19;96244.19;;;11.35;100.00
4590;BME280;2307;48.448;9.216;2023-02-17T09:36:46;96244.13;;;11.41;100.00
4590;BME280;2307;48.448;9.216;2023-02-17T09:39:15;96241.16;;;11.31;100.00
4590;BME280;2307;48.448;9.216;2023-02-17T09:41:42;96238.81;;;11.41;100.00
4590;BME280;2307;48.448;9.216;2023-02-17T09:44:13;96246.59;;;11.36;100.00
4590;BME280;2307;48.448;9.216;2023-02-17T09:46:42;96221.59;;;11.32;100.00
4590;BME280;2307;48.448;9.216;2023-02-17T09:49:11;96221.25;;;11.47;100.00
4590;BME280;2307;48.448;9.216;2023-02-17T09:51:41;96218.91;;;11.39;100.00
4590;BME280;2307;48.448;9.216;2023-02-17T09:54:09;96228.00;;;11.43;100.00
4590;BME280;2307;48.448;9.216;2023-02-17T09:56:39;96235.88;;;11.31;100.00
4590;BME280;2307;48.448;9.216;2023-02-17T09:59:07;96220.28;;;11.23;100.00
4590;BME280;2307;48.448;9.216;2023-02-17T10:01:36;96237.56;;;11.26;100.00
4590;BME280;2307;48.448;9.216;2023-02-17T10:04:04;96228.88;;;11.18;100.00
4590;BME280;2307;48.448;9.216;2023-02-17T10:06:33;96237.00;;;11.17;100.00
4590;BME280;2307;48.448;9.216;2023-02-17T10:09:02;96214.47;;;11.14;100.00
4590;BME280;2307;48.448;9.216;2023-02-17T10:11:30;96224.41;;;11.19;100.00
4590;BME280;2307;48.448;9.216;2023-02-17T10:13:59;96225.72;;;11.28;100.00
4590;BME280;2307;48.448;9.216;2023-02-17T10:16:27;96236.00;;;11.36;100.00
4590;BME280;2307;48.448;9.216;2023-02-17T10:18:56;96222.78;;;11.36;100.00
4590;BME280;2307;48.448;9.216;2023-02-17T10:21:25;96233.53;;;11.41;100.00
4590;BME280;2307;48.448;9.216;2023-02-17T10:23:52;96211.13;;;11.44;100.00
4590;BME280;2307;48.448;9.216;2023-02-17T10:26:21;96225.69;;;11.53;100.00
4590;BME280;2307;48.448;9.216;2023-02-17T10:28:50;96235.16;;;11.60;100.00
4590;BME280;2307;48.448;9.216;2023-02-17T10:31:21;96242.28;;;11.60;100.00
4590;BME280;2307;48.448;9.216;2023-02-17T10:33:51;96246.66;;;11.73;100.00
4590;BME280;2307;48.448;9.216;2023-02-17T10:36:21;96264.84;;;11.62;100.00
4590;BME280;2307;48.448;9.216;2023-02-17T10:38:50;96266.44;;;11.70;100.00
4590;BME280;2307;48.448;9.216;2023-02-17T10:41:18;96244.44;;;11.69;100.00
4590;BME280;2307;48.448;9.216;2023-02-17T10:43:45;96248.91;;;11.69;100.00
4590;BME280;2307;48.448;9.216;2023-02-17T10:46:12;96240.47;;;11.79;100.00
4590;BME280;2307;48.448;9.216;2023-02-17T10:48:42;96233.84;;;11.88;100.00
4590;BME280;2307;48.448;9.216;2023-02-17T10:51:11;96233.41;;;11.91;100.00
4590;BME280;2307;48.448;9.216;2023-02-17T10:53:39;96231.22;;;11.88;100.00
4590;BME280;2307;48.448;9.216;2023-02-17T10:56:07;96236.34;;;12.01;100.00
4590;BME280;2307;48.448;9.216;2023-02-17T10:58:36;96252.00;;;12.02;100.00
4590;BME280;2307;48.448;9.216;2023-02-17T11:01:05;96268.56;;;12.46;100.00
4590;BME280;2307;48.448;9.216;2023-02-17T11:03:33;96259.19;;;12.73;100.00
4590;BME280;2307;48.448;9.216;2023-02-17T11:06:03;96270.53;;;12.92;100.00
4590;BME280;2307;48.448;9.216;2023-02-17T11:08:31;96265.59;;;13.07;100.00
4590;BME280;2307;48.448;9.216;2023-02-17T11:10:59;96281.06;;;13.10;100.00
4590;BME280;2307;48.448;9.216;2023-02-17T11:13:31;96273.28;;;12.85;100.00
4590;BME280;2307;48.448;9.216;2023-02-17T11:15:57;96266.94;;;12.74;100.00
4590;BME280;2307;48.448;9.216;2023-02-17T11:18:25;96269.44;;;12.69;100.00
4590;BME280;2307;48.448;9.216;2023-02-17T11:20:58;96260.91;;;12.67;100.00
4590;BME280;2307;48.448;9.216;2023-02-17T11:23:26;96266.94;;;12.74;100.00
4590;BME280;2307;48.448;9.216;2023-02-17T11:25:56;96257.81;;;12.70;100.00
4590;BME280;2307;48.448;9.216;2023-02-17T11:28:23;96251.34;;;12.78;100.00
4590;BME280;2307;48.448;9.216;2023-02-17T11:30:50;96259.59;;;13.00;100.00
4590;BME280;2307;48.448;9.216;2023-02-17T11:33:19;96267.94;;;13.15;100.00
4590;BME280;2307;48.448;9.216;2023-02-17T11:35:48;96267.16;;;13.14;100.00
4590;BME280;2307;48.448;9.216;2023-02-17T11:38:15;96255.75;;;13.37;100.00
4590;BME280;2307;48.448;9.216;2023-02-17T11:40:51;96253.75;;;13.32;100.00
4590;BME280;2307;48.448;9.216;2023-02-17T11:43:18;96251.22;;;13.26;100.00
4590;BME280;2307;48.448;9.216;2023-02-17T11:45:47;96254.09;;;13.13;100.00
4590;BME280;2307;48.448;9.216;2023-02-17T11:48:21;96257.06;;;13.05;100.00
4590;BME280;2307;48.448;9.216;2023-02-17T11:50:54;96249.38;;;13.15;100.00
4590;BME280;2307;48.448;9.216;2023-02-17T11:53:25;96261.09;;;12.96;100.00
4590;BME280;2307;48.448;9.216;2023-02-17T11:56:04;96263.50;;;12.86;100.00
4590;BME280;2307;48.448;9.216;2023-02-17T11:58:41;96264.19;;;12.81;100.00
4590;BME280;2307;48.448;9.216;2023-02-17T12:01:16;96265.31;;;12.85;100.00
4590;BME280;2307;48.448;9.216;2023-02-17T12:03:57;96251.25;;;12.85;100.00
4590;BME280;2307;48.448;9.216;2023-02-17T12:06:34;96246.75;;;12.73;100.00
4590;BME280;2307;48.448;9.216;2023-02-17T12:09:06;96254.16;;;12.83;100.00
4590;BME280;2307;48.448;9.216;2023-02-17T12:11:42;96256.34;;;12.74;100.00
4590;BME280;2307;48.448;9.216;2023-02-17T12:14:14;96252.63;;;12.75;100.00
4590;BME280;2307;48.448;9.216;2023-02-17T12:16:46;96250.13;;;12.81;100.00
4590;BME280;2307;48.448;9.216;2023-02-17T12:19:24;96242.72;;;12.83;100.00
4590;BME280;2307;48.448;9.216;2023-02-17T12:21:58;96240.75;;;12.78;100.00
4590;BME280;2307;48.448;9.216;2023-02-17T12:24:40;96246.19;;;12.71;100.00
4590;BME280;2307;48.448;9.216;2023-02-17T12:27:12;96242.00;;;12.64;100.00
4590;BME280;2307;48.448;9.216;2023-02-17T12:29:52;96240.97;;;12.65;100.00
4590;BME280;2307;48.448;9.216;2023-02-17T12:32:25;96242.44;;;12.49;100.00
4590;BME280;2307;48.448;9.216;2023-02-17T12:34:57;96248.59;;;12.43;100.00
4590;BME280;2307;48.448;9.216;2023-02-17T12:37:26;96245.84;;;12.38;100.00
4590;BME280;2307;48.448;9.216;2023-02-17T12:39:54;96238.13;;;12.37;100.00
4590;BME280;2307;48.448;9.216;2023-02-17T12:42:25;96243.19;;;12.38;100.00
4590;BME280;2307;48.448;9.216;2023-02-17T12:44:54;96252.41;;;12.36;100.00
4590;BME280;2307;48.448;9.216;2023-02-17T12:47:23;96249.69;;;12.24;100.00
4590;BME280;2307;48.448;9.216;2023-02-17T12:49:54;96249.84;;;12.29;100.00
4590;BME280;2307;48.448;9.216;2023-02-17T12:52:23;96251.53;;;12.23;100.00
4590;BME280;2307;48.448;9.216;2023-02-17T12:54:51;96244.97;;;12.26;100.00
4590;BME280;2307;48.448;9.216;2023-02-17T12:57:19;96240.41;;;12.33;100.00
4590;BME280;2307;48.448;9.216;2023-02-17T12:59:49;96243.06;;;12.33;100.00
4590;BME280;2307;48.448;9.216;2023-02-17T13:02:17;96250.31;;;12.38;100.00
4590;BME280;2307;48.448;9.216;2023-02-17T13:04:44;96245.94;;;12.43;100.00
4590;BME280;2307;48.448;9.216;2023-02-17T13:07:19;96236.06;;;12.50;100.00
4590;BME280;2307;48.448;9.216;2023-02-17T13:09:47;96241.44;;;12.32;100.00
4590;BME280;2307;48.448;9.216;2023-02-17T13:12:28;96239.81;;;12.31;100.00
4590;BME280;2307;48.448;9.216;2023-02-17T13:14:57;96247.31;;;12.34;100.00
4590;BME280;2307;48.448;9.216;2023-02-17T13:17:25;96241.72;;;12.42;100.00
4590;BME280;2307;48.448;9.216;2023-02-17T13:20:05;96236.22;;;12.55;100.00
4590;BME280;2307;48.448;9.216;2023-02-17T13:22:32;96240.13;;;12.53;100.00
4590;BME280;2307;48.448;9.216;2023-02-17T13:24:58;96230.69;;;12.68;100.00